sensor_id;sensor_type;location;lat;lon;timestamp;temperature;humidity
24224;DHT22;12359;49.716;9.212;2023-05-08T00:02:04;15.50;99.10
24224;DHT22;12359;49.716;9.212;2023-05-08T00:04:29;15.50;98.90
24224;DHT22;12359;49.716;9.212;2023-05-08T00:06:55;15.50;99.30
24224;DHT22;12359;49.716;9.212;2023-05-08T00:09:21;15.50;99.40
24224;DHT22;12359;49.716;9.212;2023-05-08T00:11:46;15.50;99.30
24224;DHT22;12359;49.716;9.212;2023-05-08T00:14:12;15.50;98.90
24224;DHT22;12359;49.716;9.212;2023-05-08T00:16:38;15.50;98.90
24224;DHT22;12359;49.716;9.212;2023-05-08T00:19:04;15.40;98.50
24224;DHT22;12359;49.716;9.212;2023-05-08T00:21:29;15.40;98.70
24224;DHT22;12359;49.716;9.212;2023-05-08T00:23:55;15.30;98.60
24224;DHT22;12359;49.716;9.212;2023-05-08T00:26:21;15.40;99.30
24224;DHT22;12359;49.716;9.212;2023-05-08T00:28:47;15.30;98.90
24224;DHT22;12359;49.716;9.212;2023-05-08T00:31:13;15.30;99.20
24224;DHT22;12359;49.716;9.212;2023-05-08T00:33:39;15.30;99.40
24224;DHT22;12359;49.716;9.212;2023-05-08T00:36:05;15.30;99.40
24224;DHT22;12359;49.716;9.212;2023-05-08T00:38:33;15.20;96.80
24224;DHT22;12359;49.716;9.212;2023-05-08T00:40:59;15.20;97.50
24224;DHT22;12359;49.716;9.212;2023-05-08T00:43:25;15.20;96.40
24224;DHT22;12359;49.716;9.212;2023-05-08T00:45:58;15.20;95.60
24224;DHT22;12359;49.716;9.212;2023-05-08T00:48:28;15.20;95.30
24224;DHT22;12359;49.716;9.212;2023-05-08T00:50:55;15.10;94.40
24224;DHT22;12359;49.716;9.212;2023-05-08T00:53:22;15.10;94.30
24224;DHT22;12359;49.716;9.212;2023-05-08T00:55:50;15.00;87.60
24224;DHT22;12359;49.716;9.212;2023-05-08T00:58:16;14.90;83.80
24224;DHT22;12359;49.716;9.212;2023-05-08T01:00:43;14.90;77.40
24224;DHT22;12359;49.716;9.212;2023-05-08T01:03:11;14.80;77.30
24224;DHT22;12359;49.716;9.212;2023-05-08T01:05:37;14.80;76.90
24224;DHT22;12359;49.716;9.212;2023-05-08T01:08:03;14.70;79.70
24224;DHT22;12359;49.716;9.212;2023-05-08T01:22:25;14.60;84.80
24224;DHT22;12359;49.716;9.212;2023-05-08T01:33:34;14.40;79.70
24224;DHT22;12359;49.716;9.212;2023-05-08T01:36:33;14.40;83.50
24224;DHT22;12359;49.716;9.212;2023-05-08T01:39:16;14.40;87.90
24224;DHT22;12359;49.716;9.212;2023-05-08T01:42:08;14.50;90.30
24224;DHT22;12359;49.716;9.212;2023-05-08T01:44:40;14.50;91.10
24224;DHT22;12359;49.716;9.212;2023-05-08T01:47:09;14.30;80.10
24224;DHT22;12359;49.716;9.212;2023-05-08T01:49:51;14.30;76.10
24224;DHT22;12359;49.716;9.212;2023-05-08T01:55:08;14.20;77.60
24224;DHT22;12359;49.716;9.212;2023-05-08T01:57:39;14.10;73.70
24224;DHT22;12359;49.716;9.212;2023-05-08T02:00:07;14.10;73.30
24224;DHT22;12359;49.716;9.212;2023-05-08T02:02:34;14.00;72.60
24224;DHT22;12359;49.716;9.212;2023-05-08T02:05:05;14.00;79.20
24224;DHT22;12359;49.716;9.212;2023-05-08T02:07:32;14.10;82.90
24224;DHT22;12359;49.716;9.212;2023-05-08T02:10:01;14.10;85.50
24224;DHT22;12359;49.716;9.212;2023-05-08T02:12:29;14.10;86.50
24224;DHT22;12359;49.716;9.212;2023-05-08T02:14:58;14.10;88.50
24224;DHT22;12359;49.716;9.212;2023-05-08T02:17:26;14.00;87.60
24224;DHT22;12359;49.716;9.212;2023-05-08T02:19:54;14.00;86.80
24224;DHT22;12359;49.716;9.212;2023-05-08T02:22:22;14.00;88.10
24224;DHT22;12359;49.716;9.212;2023-05-08T02:24:49;13.90;85.90
24224;DHT22;12359;49.716;9.212;2023-05-08T02:27:21;13.90;86.40
24224;DHT22;12359;49.716;9.212;2023-05-08T02:29:49;13.90;89.00
24224;DHT22;12359;49.716;9.212;2023-05-08T02:32:17;13.90;89.80
24224;DHT22;12359;49.716;9.212;2023-05-08T02:34:44;13.90;89.10
24224;DHT22;12359;49.716;9.212;2023-05-08T02:37:10;13.80;86.40
24224;DHT22;12359;49.716;9.212;2023-05-08T02:39:37;13.80;84.80
24224;DHT22;12359;49.716;9.212;2023-05-08T02:42:03;13.80;85.90
24224;DHT22;12359;49.716;9.212;2023-05-08T02:44:29;13.80;82.70
24224;DHT22;12359;49.716;9.212;2023-05-08T02:46:59;13.80;84.60
24224;DHT22;12359;49.716;9.212;2023-05-08T02:52:31;13.80;89.10
24224;DHT22;12359;49.716;9.212;2023-05-08T02:55:02;13.80;90.20
24224;DHT22;12359;49.716;9.212;2023-05-08T03:00:19;13.80;91.10
24224;DHT22;12359;49.716;9.212;2023-05-08T03:02:53;13.80;91.20
24224;DHT22;12359;49.716;9.212;2023-05-08T03:05:27;13.70;91.40
24224;DHT22;12359;49.716;9.212;2023-05-08T03:07:58;13.70;90.90
24224;DHT22;12359;49.716;9.212;2023-05-08T03:10:28;13.70;90.60
24224;DHT22;12359;49.716;9.212;2023-05-08T03:12:57;13.70;91.00
24224;DHT22;12359;49.716;9.212;2023-05-08T03:18:10;13.60;90.60
24224;DHT22;12359;49.716;9.212;2023-05-08T03:20:40;13.60;91.00
24224;DHT22;12359;49.716;9.212;2023-05-08T03:23:08;13.60;90.70
24224;DHT22;12359;49.716;9.212;2023-05-08T03:25:36;13.60;91.10
24224;DHT22;12359;49.716;9.212;2023-05-08T03:28:05;13.50;90.00
24224;DHT22;12359;49.716;9.212;2023-05-08T03:30:33;13.50;90.90
24224;DHT22;12359;49.716;9.212;2023-05-08T03:33:00;13.50;90.70
24224;DHT22;12359;49.716;9.212;2023-05-08T03:35:28;13.50;91.60
24224;DHT22;12359;49.716;9.212;2023-05-08T03:37:54;13.60;91.80
24224;DHT22;12359;49.716;9.212;2023-05-08T03:40:20;13.60;91.70
24224;DHT22;12359;49.716;9.212;2023-05-08T03:42:47;13.50;91.30
24224;DHT22;12359;49.716;9.212;2023-05-08T03:45:13;13.50;91.20
24224;DHT22;12359;49.716;9.212;2023-05-08T03:47:40;13.50;91.60
24224;DHT22;12359;49.716;9.212;2023-05-08T03:50:07;13.50;92.50
24224;DHT22;12359;49.716;9.212;2023-05-08T03:52:33;13.60;92.80
24224;DHT22;12359;49.716;9.212;2023-05-08T03:54:59;13.50;92.50
24224;DHT22;12359;49.716;9.212;2023-05-08T03:57:32;13.50;92.30
24224;DHT22;12359;49.716;9.212;2023-05-08T04:00:15;13.50;91.30
24224;DHT22;12359;49.716;9.212;2023-05-08T04:02:51;13.40;91.50
24224;DHT22;12359;49.716;9.212;2023-05-08T04:05:49;13.40;92.10
24224;DHT22;12359;49.716;9.212;2023-05-08T04:08:20;13.40;91.70
24224;DHT22;12359;49.716;9.212;2023-05-08T04:10:54;13.40;91.30
24224;DHT22;12359;49.716;9.212;2023-05-08T04:13:26;13.40;90.20
24224;DHT22;12359;49.716;9.212;2023-05-08T04:16:06;13.40;90.80
24224;DHT22;12359;49.716;9.212;2023-05-08T04:18:36;13.40;91.20
24224;DHT22;12359;49.716;9.212;2023-05-08T04:21:08;13.40;91.70
24224;DHT22;12359;49.716;9.212;2023-05-08T04:23:35;13.30;90.20
24224;DHT22;12359;49.716;9.212;2023-05-08T04:26:04;13.30;89.20
24224;DHT22;12359;49.716;9.212;2023-05-08T04:28:30;13.30;88.10
24224;DHT22;12359;49.716;9.212;2023-05-08T04:30:56;13.30;88.00
24224;DHT22;12359;49.716;9.212;2023-05-08T04:33:22;13.40;87.20
24224;DHT22;12359;49.716;9.212;2023-05-08T04:35:48;13.40;87.20
24224;DHT22;12359;49.716;9.212;2023-05-08T04:38:14;13.30;80.30
24224;DHT22;12359;49.716;9.212;2023-05-08T04:40:40;13.30;81.20
24224;DHT22;12359;49.716;9.212;2023-05-08T04:43:06;13.20;80.20
24224;DHT22;12359;49.716;9.212;2023-05-08T04:45:31;13.30;79.50
24224;DHT22;12359;49.716;9.212;2023-05-08T04:47:57;13.30;78.50
24224;DHT22;12359;49.716;9.212;2023-05-08T04:50:23;13.30;75.80
24224;DHT22;12359;49.716;9.212;2023-05-08T04:52:57;13.30;77.50
24224;DHT22;12359;49.716;9.212;2023-05-08T04:55:23;13.30;73.10
24224;DHT22;12359;49.716;9.212;2023-05-08T04:57:49;13.40;77.70
24224;DHT22;12359;49.716;9.212;2023-05-08T05:00:14;13.40;78.30
24224;DHT22;12359;49.716;9.212;2023-05-08T05:02:40;13.40;80.60
24224;DHT22;12359;49.716;9.212;2023-05-08T05:05:06;13.40;66.40
24224;DHT22;12359;49.716;9.212;2023-05-08T05:07:32;13.40;72.10
24224;DHT22;12359;49.716;9.212;2023-05-08T05:09:59;13.40;72.30
24224;DHT22;12359;49.716;9.212;2023-05-08T05:12:25;13.40;69.50
24224;DHT22;12359;49.716;9.212;2023-05-08T05:14:50;13.40;69.40
24224;DHT22;12359;49.716;9.212;2023-05-08T05:17:16;13.40;66.90
24224;DHT22;12359;49.716;9.212;2023-05-08T05:19:42;13.30;64.90
24224;DHT22;12359;49.716;9.212;2023-05-08T05:22:07;13.40;72.90
24224;DHT22;12359;49.716;9.212;2023-05-08T05:24:33;13.50;74.00
24224;DHT22;12359;49.716;9.212;2023-05-08T05:27:01;13.60;75.80
24224;DHT22;12359;49.716;9.212;2023-05-08T05:29:27;13.60;78.10
24224;DHT22;12359;49.716;9.212;2023-05-08T05:31:52;13.50;69.00
24224;DHT22;12359;49.716;9.212;2023-05-08T05:34:18;13.50;73.80
24224;DHT22;12359;49.716;9.212;2023-05-08T05:36:44;13.60;75.40
24224;DHT22;12359;49.716;9.212;2023-05-08T05:39:09;13.50;64.90
24224;DHT22;12359;49.716;9.212;2023-05-08T05:41:35;13.50;68.40
24224;DHT22;12359;49.716;9.212;2023-05-08T05:44:01;13.50;68.70
24224;DHT22;12359;49.716;9.212;2023-05-08T05:46:27;13.40;68.00
24224;DHT22;12359;49.716;9.212;2023-05-08T05:48:57;13.40;73.80
24224;DHT22;12359;49.716;9.212;2023-05-08T05:51:23;13.40;69.20
24224;DHT22;12359;49.716;9.212;2023-05-08T05:53:49;13.40;67.10
24224;DHT22;12359;49.716;9.212;2023-05-08T05:56:14;13.30;66.70
24224;DHT22;12359;49.716;9.212;2023-05-08T05:58:40;13.40;66.80
24224;DHT22;12359;49.716;9.212;2023-05-08T06:01:09;13.40;69.50
24224;DHT22;12359;49.716;9.212;2023-05-08T06:03:35;13.40;67.80
24224;DHT22;12359;49.716;9.212;2023-05-08T06:06:02;13.30;70.50
24224;DHT22;12359;49.716;9.212;2023-05-08T06:08:28;13.30;68.00
24224;DHT22;12359;49.716;9.212;2023-05-08T06:10:54;13.30;68.30
24224;DHT22;12359;49.716;9.212;2023-05-08T06:13:19;13.30;72.70
24224;DHT22;12359;49.716;9.212;2023-05-08T06:15:45;13.30;77.30
24224;DHT22;12359;49.716;9.212;2023-05-08T06:18:11;13.40;74.60
24224;DHT22;12359;49.716;9.212;2023-05-08T06:20:37;13.40;74.00
24224;DHT22;12359;49.716;9.212;2023-05-08T06:23:03;13.40;77.60
24224;DHT22;12359;49.716;9.212;2023-05-08T06:25:30;13.40;72.80
24224;DHT22;12359;49.716;9.212;2023-05-08T06:27:56;13.40;72.60
24224;DHT22;12359;49.716;9.212;2023-05-08T06:30:22;13.40;77.90
24224;DHT22;12359;49.716;9.212;2023-05-08T06:32:47;13.50;80.40
24224;DHT22;12359;49.716;9.212;2023-05-08T06:35:13;13.50;79.70
24224;DHT22;12359;49.716;9.212;2023-05-08T06:37:44;13.50;73.10
24224;DHT22;12359;49.716;9.212;2023-05-08T06:40:11;13.40;69.30
24224;DHT22;12359;49.716;9.212;2023-05-08T06:42:37;13.40;68.70
24224;DHT22;12359;49.716;9.212;2023-05-08T06:45:03;13.40;70.40
24224;DHT22;12359;49.716;9.212;2023-05-08T06:47:29;13.40;69.60
24224;DHT22;12359;49.716;9.212;2023-05-08T06:49:55;13.40;70.80
24224;DHT22;12359;49.716;9.212;2023-05-08T06:52:21;13.40;72.90
24224;DHT22;12359;49.716;9.212;2023-05-08T06:54:46;13.40;74.50
24224;DHT22;12359;49.716;9.212;2023-05-08T06:57:12;13.40;74.70
24224;DHT22;12359;49.716;9.212;2023-05-08T06:59:39;13.40;68.80
24224;DHT22;12359;49.716;9.212;2023-05-08T07:02:05;13.40;72.60
24224;DHT22;12359;49.716;9.212;2023-05-08T07:04:30;13.50;70.90
24224;DHT22;12359;49.716;9.212;2023-05-08T07:06:56;13.40;64.70
24224;DHT22;12359;49.716;9.212;2023-05-08T07:09:22;13.40;67.60
24224;DHT22;12359;49.716;9.212;2023-05-08T07:11:47;13.40;68.60
24224;DHT22;12359;49.716;9.212;2023-05-08T07:14:13;13.50;72.10
24224;DHT22;12359;49.716;9.212;2023-05-08T07:16:39;13.50;70.50
24224;DHT22;12359;49.716;9.212;2023-05-08T07:19:05;13.50;68.20
24224;DHT22;12359;49.716;9.212;2023-05-08T07:21:30;13.60;68.50
24224;DHT22;12359;49.716;9.212;2023-05-08T07:23:56;13.70;69.30
24224;DHT22;12359;49.716;9.212;2023-05-08T07:26:22;13.80;66.70
24224;DHT22;12359;49.716;9.212;2023-05-08T07:28:48;13.90;58.90
24224;DHT22;12359;49.716;9.212;2023-05-08T07:31:15;13.90;56.90
24224;DHT22;12359;49.716;9.212;2023-05-08T07:33:41;13.90;60.10
24224;DHT22;12359;49.716;9.212;2023-05-08T07:36:07;14.00;52.60
24224;DHT22;12359;49.716;9.212;2023-05-08T07:38:32;14.00;57.30
24224;DHT22;12359;49.716;9.212;2023-05-08T07:40:58;14.10;59.90
24224;DHT22;12359;49.716;9.212;2023-05-08T07:43:26;14.30;60.70
24224;DHT22;12359;49.716;9.212;2023-05-08T07:45:52;14.40;61.30
24224;DHT22;12359;49.716;9.212;2023-05-08T07:48:17;14.30;53.20
24224;DHT22;12359;49.716;9.212;2023-05-08T07:50:44;14.20;43.40
24224;DHT22;12359;49.716;9.212;2023-05-08T07:53:10;14.20;46.80
24224;DHT22;12359;49.716;9.212;2023-05-08T07:55:35;14.20;44.70
24224;DHT22;12359;49.716;9.212;2023-05-08T07:58:01;14.30;48.70
24224;DHT22;12359;49.716;9.212;2023-05-08T08:00:27;14.10;41.50
24224;DHT22;12359;49.716;9.212;2023-05-08T08:02:54;14.20;44.10
24224;DHT22;12359;49.716;9.212;2023-05-08T08:05:20;14.30;48.50
24224;DHT22;12359;49.716;9.212;2023-05-08T08:07:46;14.40;47.80
24224;DHT22;12359;49.716;9.212;2023-05-08T08:10:11;14.50;46.40
24224;DHT22;12359;49.716;9.212;2023-05-08T08:12:37;14.50;43.30
24224;DHT22;12359;49.716;9.212;2023-05-08T08:15:04;14.50;41.30
24224;DHT22;12359;49.716;9.212;2023-05-08T08:17:30;14.60;44.60
24224;DHT22;12359;49.716;9.212;2023-05-08T08:19:55;14.50;41.60
24224;DHT22;12359;49.716;9.212;2023-05-08T08:22:22;14.50;44.00
24224;DHT22;12359;49.716;9.212;2023-05-08T08:24:48;14.50;33.40
24224;DHT22;12359;49.716;9.212;2023-05-08T08:27:13;14.60;38.90
24224;DHT22;12359;49.716;9.212;2023-05-08T08:29:39;14.60;41.80
24224;DHT22;12359;49.716;9.212;2023-05-08T08:32:05;14.80;43.90
24224;DHT22;12359;49.716;9.212;2023-05-08T08:34:32;14.70;32.30
24224;DHT22;12359;49.716;9.212;2023-05-08T08:36:58;14.70;27.80
24224;DHT22;12359;49.716;9.212;2023-05-08T08:39:23;14.60;31.20
24224;DHT22;12359;49.716;9.212;2023-05-08T08:41:49;14.60;28.80
24224;DHT22;12359;49.716;9.212;2023-05-08T08:44:15;14.60;40.70
24224;DHT22;12359;49.716;9.212;2023-05-08T08:46:44;14.70;43.60
24224;DHT22;12359;49.716;9.212;2023-05-08T08:49:40;14.80;36.00
24224;DHT22;12359;49.716;9.212;2023-05-08T08:54:59;14.70;37.20
24224;DHT22;12359;49.716;9.212;2023-05-08T08:57:27;14.60;40.50
24224;DHT22;12359;49.716;9.212;2023-05-08T08:59:56;14.60;41.60
24224;DHT22;12359;49.716;9.212;2023-05-08T09:02:25;14.70;44.60
24224;DHT22;12359;49.716;9.212;2023-05-08T09:04:52;14.70;47.90
24224;DHT22;12359;49.716;9.212;2023-05-08T09:07:17;14.70;38.40
24224;DHT22;12359;49.716;9.212;2023-05-08T09:09:44;14.70;48.40
24224;DHT22;12359;49.716;9.212;2023-05-08T09:12:14;14.80;44.20
24224;DHT22;12359;49.716;9.212;2023-05-08T09:14:40;14.80;33.50
24224;DHT22;12359;49.716;9.212;2023-05-08T09:17:05;14.70;29.10
24224;DHT22;12359;49.716;9.212;2023-05-08T09:19:32;14.60;37.00
24224;DHT22;12359;49.716;9.212;2023-05-08T09:21:59;14.60;39.00
24224;DHT22;12359;49.716;9.212;2023-05-08T09:24:25;14.70;50.20
24224;DHT22;12359;49.716;9.212;2023-05-08T09:26:52;14.80;48.50
24224;DHT22;12359;49.716;9.212;2023-05-08T09:29:21;14.90;45.70
24224;DHT22;12359;49.716;9.212;2023-05-08T09:31:48;15.00;39.10
24224;DHT22;12359;49.716;9.212;2023-05-08T09:34:24;15.10;37.20
24224;DHT22;12359;49.716;9.212;2023-05-08T09:36:51;15.10;36.60
24224;DHT22;12359;49.716;9.212;2023-05-08T09:39:24;15.20;41.00
24224;DHT22;12359;49.716;9.212;2023-05-08T09:42:16;15.20;35.10
24224;DHT22;12359;49.716;9.212;2023-05-08T09:44:48;15.20;33.00
24224;DHT22;12359;49.716;9.212;2023-05-08T09:50:07;15.20;27.10
24224;DHT22;12359;49.716;9.212;2023-05-08T09:52:35;15.30;24.60
24224;DHT22;12359;49.716;9.212;2023-05-08T09:55:03;15.30;29.10
24224;DHT22;12359;49.716;9.212;2023-05-08T09:57:30;15.40;29.90
24224;DHT22;12359;49.716;9.212;2023-05-08T10:00:07;15.40;24.20
24224;DHT22;12359;49.716;9.212;2023-05-08T10:02:35;15.40;28.80
24224;DHT22;12359;49.716;9.212;2023-05-08T10:05:04;15.30;11.70
24224;DHT22;12359;49.716;9.212;2023-05-08T10:07:34;15.40;25.60
24224;DHT22;12359;49.716;9.212;2023-05-08T10:10:04;15.50;32.20
24224;DHT22;12359;49.716;9.212;2023-05-08T10:12:31;15.60;38.20
24224;DHT22;12359;49.716;9.212;2023-05-08T10:14:58;15.40;12.60
24224;DHT22;12359;49.716;9.212;2023-05-08T10:17:36;15.40;16.50
24224;DHT22;12359;49.716;9.212;2023-05-08T10:20:05;15.40;18.80
24224;DHT22;12359;49.716;9.212;2023-05-08T10:22:36;15.30;23.90
24224;DHT22;12359;49.716;9.212;2023-05-08T10:25:02;15.30;16.00
24224;DHT22;12359;49.716;9.212;2023-05-08T10:27:44;15.40;27.90
24224;DHT22;12359;49.716;9.212;2023-05-08T10:30:12;15.70;32.00
24224;DHT22;12359;49.716;9.212;2023-05-08T10:32:43;15.80;27.20
24224;DHT22;12359;49.716;9.212;2023-05-08T10:35:10;15.70;15.20
24224;DHT22;12359;49.716;9.212;2023-05-08T10:37:37;15.90;22.60
24224;DHT22;12359;49.716;9.212;2023-05-08T10:40:04;15.80;2.90
24224;DHT22;12359;49.716;9.212;2023-05-08T10:42:32;16.00;13.20
24224;DHT22;12359;49.716;9.212;2023-05-08T10:45:00;16.10;21.40
24224;DHT22;12359;49.716;9.212;2023-05-08T10:55:38;16.00;4.10
24224;DHT22;12359;49.716;9.212;2023-05-08T10:58:14;16.00;12.70
24224;DHT22;12359;49.716;9.212;2023-05-08T11:03:19;15.80;16.50
24224;DHT22;12359;49.716;9.212;2023-05-08T11:05:46;15.80;18.60
24224;DHT22;12359;49.716;9.212;2023-05-08T11:11:11;15.70;20.50
24224;DHT22;12359;49.716;9.212;2023-05-08T11:13:58;15.60;16.90
24224;DHT22;12359;49.716;9.212;2023-05-08T11:24:45;15.60;35.50
24224;DHT22;12359;49.716;9.212;2023-05-08T11:27:11;15.60;35.40
24224;DHT22;12359;49.716;9.212;2023-05-08T11:29:37;15.50;24.30
24224;DHT22;12359;49.716;9.212;2023-05-08T11:32:04;15.60;34.60
24224;DHT22;12359;49.716;9.212;2023-05-08T11:37:09;15.60;31.80
24224;DHT22;12359;49.716;9.212;2023-05-08T11:39:34;15.60;35.70
24224;DHT22;12359;49.716;9.212;2023-05-08T11:45:12;15.50;37.70
24224;DHT22;12359;49.716;9.212;2023-05-08T11:47:39;15.60;34.80
24224;DHT22;12359;49.716;9.212;2023-05-08T11:50:07;15.60;40.50
24224;DHT22;12359;49.716;9.212;2023-05-08T11:52:39;15.70;36.60
24224;DHT22;12359;49.716;9.212;2023-05-08T11:55:07;15.80;34.50
24224;DHT22;12359;49.716;9.212;2023-05-08T11:57:33;15.90;34.70
24224;DHT22;12359;49.716;9.212;2023-05-08T12:00:09;15.80;31.10
24224;DHT22;12359;49.716;9.212;2023-05-08T12:05:01;16.10;34.20
24224;DHT22;12359;49.716;9.212;2023-05-08T12:07:27;16.00;15.60
24224;DHT22;12359;49.716;9.212;2023-05-08T12:09:53;16.00;23.90
24224;DHT22;12359;49.716;9.212;2023-05-08T12:12:19;16.10;23.60
24224;DHT22;12359;49.716;9.212;2023-05-08T12:14:48;16.10;24.70
24224;DHT22;12359;49.716;9.212;2023-05-08T12:17:18;16.20;24.00
24224;DHT22;12359;49.716;9.212;2023-05-08T12:19:44;16.10;11.80
24224;DHT22;12359;49.716;9.212;2023-05-08T12:22:09;16.10;18.20
24224;DHT22;12359;49.716;9.212;2023-05-08T12:24:35;16.10;15.20
24224;DHT22;12359;49.716;9.212;2023-05-08T12:27:01;16.00;14.50
24224;DHT22;12359;49.716;9.212;2023-05-08T12:29:27;16.10;17.20
24224;DHT22;12359;49.716;9.212;2023-05-08T12:31:54;16.10;10.70
24224;DHT22;12359;49.716;9.212;2023-05-08T12:34:20;16.10;7.20
24224;DHT22;12359;49.716;9.212;2023-05-08T12:36:46;16.10;13.40
24224;DHT22;12359;49.716;9.212;2023-05-08T12:39:14;16.10;19.50
24224;DHT22;12359;49.716;9.212;2023-05-08T12:41:47;16.20;13.40
24224;DHT22;12359;49.716;9.212;2023-05-08T12:44:23;16.20;10.50
24224;DHT22;12359;49.716;9.212;2023-05-08T12:46:54;16.20;7.90
24224;DHT22;12359;49.716;9.212;2023-05-08T12:49:27;16.30;9.30
24224;DHT22;12359;49.716;9.212;2023-05-08T12:52:19;16.30;10.40
24224;DHT22;12359;49.716;9.212;2023-05-08T12:54:48;16.40;15.90
24224;DHT22;12359;49.716;9.212;2023-05-08T12:57:18;16.40;17.90
24224;DHT22;12359;49.716;9.212;2023-05-08T12:59:44;16.50;14.90
24224;DHT22;12359;49.716;9.212;2023-05-08T13:02:15;16.50;1.00
24224;DHT22;12359;49.716;9.212;2023-05-08T13:04:42;16.50;6.00
24224;DHT22;12359;49.716;9.212;2023-05-08T13:07:08;16.40;7.70
24224;DHT22;12359;49.716;9.212;2023-05-08T13:09:33;16.50;4.60
24224;DHT22;12359;49.716;9.212;2023-05-08T13:11:59;16.40;5.10
24224;DHT22;12359;49.716;9.212;2023-05-08T13:14:25;16.40;1.00
24224;DHT22;12359;49.716;9.212;2023-05-08T13:16:51;16.30;1.00
24224;DHT22;12359;49.716;9.212;2023-05-08T13:19:16;16.30;2.00
24224;DHT22;12359;49.716;9.212;2023-05-08T13:21:43;16.30;10.00
24224;DHT22;12359;49.716;9.212;2023-05-08T13:24:12;16.30;7.90
24224;DHT22;12359;49.716;9.212;2023-05-08T13:26:38;16.20;6.00
24224;DHT22;12359;49.716;9.212;2023-05-08T13:29:04;16.20;6.10
24224;DHT22;12359;49.716;9.212;2023-05-08T13:31:29;16.20;12.40
24224;DHT22;12359;49.716;9.212;2023-05-08T13:33:55;16.30;11.80
24224;DHT22;12359;49.716;9.212;2023-05-08T13:36:21;16.40;14.10
24224;DHT22;12359;49.716;9.212;2023-05-08T13:38:46;16.30;9.40
24224;DHT22;12359;49.716;9.212;2023-05-08T13:41:12;16.30;10.20
24224;DHT22;12359;49.716;9.212;2023-05-08T13:43:38;16.40;3.10
24224;DHT22;12359;49.716;9.212;2023-05-08T13:46:04;16.40;1.40
24224;DHT22;12359;49.716;9.212;2023-05-08T13:48:30;16.40;1.10
24224;DHT22;12359;49.716;9.212;2023-05-08T13:50:55;16.30;6.00
24224;DHT22;12359;49.716;9.212;2023-05-08T13:53:21;16.30;9.50
24224;DHT22;12359;49.716;9.212;2023-05-08T13:55:46;16.40;11.70
24224;DHT22;12359;49.716;9.212;2023-05-08T13:58:12;16.40;15.20
24224;DHT22;12359;49.716;9.212;2023-05-08T14:00:38;16.40;9.00
24224;DHT22;12359;49.716;9.212;2023-05-08T14:03:04;16.30;6.00
24224;DHT22;12359;49.716;9.212;2023-05-08T14:05:29;16.40;15.20
24224;DHT22;12359;49.716;9.212;2023-05-08T14:07:55;16.40;9.10
24224;DHT22;12359;49.716;9.212;2023-05-08T14:10:21;16.40;12.70
24224;DHT22;12359;49.716;9.212;2023-05-08T14:12:47;16.40;16.30
24224;DHT22;12359;49.716;9.212;2023-05-08T14:15:12;16.50;19.50
24224;DHT22;12359;49.716;9.212;2023-05-08T14:17:38;16.50;6.70
24224;DHT22;12359;49.716;9.212;2023-05-08T14:20:04;16.60;9.70
24224;DHT22;12359;49.716;9.212;2023-05-08T14:22:31;16.70;4.80
24224;DHT22;12359;49.716;9.212;2023-05-08T14:24:56;16.70;8.50
24224;DHT22;12359;49.716;9.212;2023-05-08T14:27:22;16.70;4.20
24224;DHT22;12359;49.716;9.212;2023-05-08T14:29:47;16.80;3.70
24224;DHT22;12359;49.716;9.212;2023-05-08T14:32:13;16.80;5.30
24224;DHT22;12359;49.716;9.212;2023-05-08T14:34:39;16.70;1.00
24224;DHT22;12359;49.716;9.212;2023-05-08T14:37:05;16.70;3.70
24224;DHT22;12359;49.716;9.212;2023-05-08T14:39:31;16.70;3.90
24224;DHT22;12359;49.716;9.212;2023-05-08T14:41:56;16.70;2.20
24224;DHT22;12359;49.716;9.212;2023-05-08T14:44:22;16.60;3.50
24224;DHT22;12359;49.716;9.212;2023-05-08T14:46:48;16.60;13.80
24224;DHT22;12359;49.716;9.212;2023-05-08T14:49:13;16.60;12.10
24224;DHT22;12359;49.716;9.212;2023-05-08T14:51:39;16.60;18.30
24224;DHT22;12359;49.716;9.212;2023-05-08T14:54:05;16.80;19.60
24224;DHT22;12359;49.716;9.212;2023-05-08T14:56:33;17.00;11.10
24224;DHT22;12359;49.716;9.212;2023-05-08T14:58:59;17.20;5.80
24224;DHT22;12359;49.716;9.212;2023-05-08T15:01:25;17.30;1.00
24224;DHT22;12359;49.716;9.212;2023-05-08T15:03:50;17.30;1.00
24224;DHT22;12359;49.716;9.212;2023-05-08T15:06:19;17.40;1.00
24224;DHT22;12359;49.716;9.212;2023-05-08T15:08:45;17.30;1.00
24224;DHT22;12359;49.716;9.212;2023-05-08T15:11:11;17.40;1.00
24224;DHT22;12359;49.716;9.212;2023-05-08T15:13:37;17.30;1.00
24224;DHT22;12359;49.716;9.212;2023-05-08T15:16:03;17.30;1.00
24224;DHT22;12359;49.716;9.212;2023-05-08T15:18:28;17.30;1.00
24224;DHT22;12359;49.716;9.212;2023-05-08T15:20:54;17.30;1.00
24224;DHT22;12359;49.716;9.212;2023-05-08T15:23:20;17.50;1.00
24224;DHT22;12359;49.716;9.212;2023-05-08T15:25:46;17.50;1.00
24224;DHT22;12359;49.716;9.212;2023-05-08T15:28:11;17.50;1.00
24224;DHT22;12359;49.716;9.212;2023-05-08T15:30:37;17.50;1.00
24224;DHT22;12359;49.716;9.212;2023-05-08T15:33:03;17.50;1.00
24224;DHT22;12359;49.716;9.212;2023-05-08T15:35:28;17.40;1.00
24224;DHT22;12359;49.716;9.212;2023-05-08T15:37:54;17.60;1.00
24224;DHT22;12359;49.716;9.212;2023-05-08T15:40:20;17.60;1.00
24224;DHT22;12359;49.716;9.212;2023-05-08T15:42:45;17.70;1.00
24224;DHT22;12359;49.716;9.212;2023-05-08T15:45:11;17.60;1.00
24224;DHT22;12359;49.716;9.212;2023-05-08T15:47:37;17.50;1.00
24224;DHT22;12359;49.716;9.212;2023-05-08T15:50:03;17.50;1.00
24224;DHT22;12359;49.716;9.212;2023-05-08T15:52:28;17.40;1.00
24224;DHT22;12359;49.716;9.212;2023-05-08T15:54:54;17.30;1.00
24224;DHT22;12359;49.716;9.212;2023-05-08T15:57:20;17.30;1.00
24224;DHT22;12359;49.716;9.212;2023-05-08T15:59:45;17.20;1.00
24224;DHT22;12359;49.716;9.212;2023-05-08T16:02:11;17.20;1.00
24224;DHT22;12359;49.716;9.212;2023-05-08T16:04:37;17.20;1.00
24224;DHT22;12359;49.716;9.212;2023-05-08T16:07:02;17.20;1.00
24224;DHT22;12359;49.716;9.212;2023-05-08T16:09:28;17.30;1.00
24224;DHT22;12359;49.716;9.212;2023-05-08T16:11:54;17.30;1.00
24224;DHT22;12359;49.716;9.212;2023-05-08T16:14:20;17.20;1.00
24224;DHT22;12359;49.716;9.212;2023-05-08T16:16:45;17.20;1.00
24224;DHT22;12359;49.716;9.212;2023-05-08T16:19:11;17.30;1.00
24224;DHT22;12359;49.716;9.212;2023-05-08T16:21:37;17.30;1.00
24224;DHT22;12359;49.716;9.212;2023-05-08T16:24:03;17.30;1.00
24224;DHT22;12359;49.716;9.212;2023-05-08T16:26:29;17.30;1.00
24224;DHT22;12359;49.716;9.212;2023-05-08T16:28:55;17.30;1.00
24224;DHT22;12359;49.716;9.212;2023-05-08T16:31:21;17.30;1.00
24224;DHT22;12359;49.716;9.212;2023-05-08T16:33:47;17.30;1.00
24224;DHT22;12359;49.716;9.212;2023-05-08T16:36:12;17.30;1.00
24224;DHT22;12359;49.716;9.212;2023-05-08T16:38:38;17.20;1.00
24224;DHT22;12359;49.716;9.212;2023-05-08T16:41:05;17.20;1.00
24224;DHT22;12359;49.716;9.212;2023-05-08T16:43:31;17.20;1.00
24224;DHT22;12359;49.716;9.212;2023-05-08T16:45:57;17.10;1.00